Time;durP1;ratioP1;P1;durP2;ratioP2;P2;SDS_P1;SDS_P2;PMS_P1;PMS_P2;Temp;Humidity;BMP_temperature;BMP_pressure;BME280_temperature;BME280_humidity;BME280_pressure;Samples;Min_cycle;Max_cycle;Signal;HPM_P1;HPM_P2
2023/08/02 00:01:19;;;;;;;3.88;2.10;;;;;;;19.73;64.43;91783.19;4792536;30;20028;-82
2023/08/02 00:03:45;;;;;;;3.97;2.10;;;;;;;19.76;65.21;91777.16;4792561;29;20460;-82
2023/08/02 00:06:10;;;;;;;3.90;2.00;;;;;;;19.79;64.88;91778.31;4791810;29;20043;-83
2023/08/02 00:08:36;;;;;;;4.10;2.10;;;;;;;19.86;63.86;91773.13;4791589;30;20118;-82
2023/08/02 00:11:03;;;;;;;5.55;1.98;;;;;;;19.83;63.82;91762.44;4792123;29;20082;-82
2023/08/02 00:13:28;;;;;;;5.13;2.00;;;;;;;19.83;63.49;91765.09;4790025;29;20552;-82
2023/08/02 00:15:54;;;;;;;5.53;2.30;;;;;;;19.81;63.59;91765.44;4791274;29;20047;-82
2023/08/02 00:18:20;;;;;;;4.88;1.98;;;;;;;19.82;64.14;91760.94;4790327;30;20088;-82
2023/08/02 00:20:47;;;;;;;4.47;1.92;;;;;;;19.79;63.09;91766.94;4790919;29;20102;-83
2023/08/02 00:23:12;;;;;;;3.95;2.00;;;;;;;19.75;62.68;91762.38;4791640;29;20076;-82
2023/08/02 00:25:39;;;;;;;4.35;1.80;;;;;;;19.78;61.38;91754.81;4791081;29;20071;-82
2023/08/02 00:28:04;;;;;;;4.07;1.90;;;;;;;19.75;62.31;91759.72;4788461;29;20039;-83
2023/08/02 00:30:31;;;;;;;4.55;2.00;;;;;;;19.73;62.66;91759.31;4788327;30;20046;-82
2023/08/02 00:32:57;;;;;;;3.53;1.80;;;;;;;19.69;61.80;91758.47;4791602;29;20591;-82
2023/08/02 00:35:23;;;;;;;4.05;1.90;;;;;;;19.66;62.77;91763.72;4791183;29;20138;-82
2023/08/02 00:37:48;;;;;;;6.40;2.03;;;;;;;19.78;60.58;91760.13;4775209;30;20047;-82
2023/08/02 00:40:14;;;;;;;4.07;1.90;;;;;;;19.65;63.21;91756.88;4790754;29;20059;-82
2023/08/02 00:42:40;;;;;;;3.88;1.83;;;;;;;19.55;64.08;91752.97;4791542;29;20039;-82
2023/08/02 00:45:06;;;;;;;4.03;1.80;;;;;;;19.49;63.92;91743.78;4791769;29;20387;-82
2023/08/02 00:47:33;;;;;;;4.38;1.90;;;;;;;19.43;64.85;91747.88;4788626;29;20084;-82
2023/08/02 00:49:59;;;;;;;5.13;2.20;;;;;;;19.37;65.14;91746.66;4790413;30;20062;-81
2023/08/02 00:52:26;;;;;;;3.65;1.90;;;;;;;19.32;65.50;91751.16;4790724;29;20177;-83
2023/08/02 00:54:52;;;;;;;4.65;2.13;;;;;;;19.26;65.98;91749.91;4789706;30;20027;-83
2023/08/02 00:57:18;;;;;;;4.00;1.90;;;;;;;19.20;66.33;91751.34;4789756;29;20107;-82
2023/08/02 00:59:43;;;;;;;3.85;1.92;;;;;;;19.15;67.06;91746.34;4785058;30;20104;-82
2023/08/02 01:02:09;;;;;;;4.75;2.30;;;;;;;19.11;66.47;91745.53;4790639;29;20518;-82
2023/08/02 01:04:36;;;;;;;4.65;2.05;;;;;;;19.06;66.05;91743.94;4788348;29;20047;-82
2023/08/02 01:07:17;;;;;;;6.70;2.08;;;;;;;19.10;64.49;91749.31;4789758;29;20063;-82
2023/08/02 01:09:52;;;;;;;3.55;1.63;;;;;;;19.10;64.55;91746.66;4787794;29;20092;-81
2023/08/02 01:12:21;;;;;;;4.32;1.85;;;;;;;19.07;64.29;91744.69;4787395;29;20533;-82
2023/08/02 01:14:53;;;;;;;4.10;2.05;;;;;;;19.05;64.92;91746.94;4805072;29;20035;-82
2023/08/02 01:17:19;;;;;;;3.35;1.58;;;;;;;19.06;63.94;91745.84;4790442;29;20105;-82
2023/08/02 01:19:45;;;;;;;3.28;1.60;;;;;;;19.15;63.93;91743.69;4790160;29;20083;-82
2023/08/02 01:22:11;;;;;;;4.28;1.98;;;;;;;19.28;62.06;91749.56;4790208;30;20043;-82
2023/08/02 01:24:37;;;;;;;3.33;1.88;;;;;;;19.42;60.73;91764.91;4788237;29;20043;-82
2023/08/02 01:27:07;;;;;;;3.85;1.77;;;;;;;19.40;61.61;91762.63;4790857;29;20440;-81
2023/08/02 01:29:36;;;;;;;4.22;1.88;;;;;;;19.35;61.77;91761.03;4788463;29;20043;-82
2023/08/02 01:32:02;;;;;;;4.88;1.65;;;;;;;19.50;59.85;91756.69;4790745;29;20483;-83
2023/08/02 01:34:30;;;;;;;3.60;1.90;;;;;;;19.51;58.95;91763.53;4789928;29;20039;-82
2023/08/02 01:36:55;;;;;;;5.10;1.75;;;;;;;19.56;58.38;91754.50;4789091;29;20035;-83
2023/08/02 01:39:21;;;;;;;3.80;1.67;;;;;;;19.59;57.44;91747.69;4789781;29;20065;-82
2023/08/02 01:41:46;;;;;;;4.68;2.00;;;;;;;19.71;57.80;91744.84;4789317;30;20081;-83
2023/08/02 01:44:12;;;;;;;3.70;1.80;;;;;;;19.69;58.56;91737.25;4787571;29;20046;-82
2023/08/02 01:46:38;;;;;;;4.43;2.00;;;;;;;19.67;57.92;91739.47;4788972;29;20047;-82
2023/08/02 01:49:03;;;;;;;4.78;1.77;;;;;;;19.68;59.24;91741.00;4787043;30;20062;-82
2023/08/02 01:51:29;;;;;;;3.75;1.73;;;;;;;19.64;58.97;91745.50;4795605;29;20038;-82
2023/08/02 01:53:54;;;;;;;4.50;1.98;;;;;;;19.58;59.17;91749.59;4790231;29;20094;-81
2023/08/02 01:56:20;;;;;;;4.13;2.00;;;;;;;19.55;60.31;91742.34;4788421;29;20482;-82
2023/08/02 01:58:46;;;;;;;4.15;1.98;;;;;;;19.52;60.34;91743.06;4789424;29;20077;-82
2023/08/02 02:01:11;;;;;;;4.00;1.92;;;;;;;19.49;59.90;91738.47;4787904;30;20412;-82
2023/08/02 02:03:37;;;;;;;4.25;2.10;;;;;;;19.45;60.48;91748.28;4775005;30;20107;-82
2023/08/02 02:06:02;;;;;;;3.08;1.60;;;;;;;19.44;61.32;91744.84;4793322;29;20039;-82
2023/08/02 02:08:28;;;;;;;5.22;1.80;;;;;;;19.43;61.06;91750.50;4792040;29;20063;-82
2023/08/02 02:10:54;;;;;;;4.10;1.70;;;;;;;19.45;60.45;91748.28;4773275;30;20039;-82
2023/08/02 02:13:23;;;;;;;3.55;1.80;;;;;;;19.42;60.55;91754.31;4773661;30;20053;-81
2023/08/02 02:15:49;;;;;;;3.92;1.77;;;;;;;19.41;60.90;91760.72;4771985;29;20139;-82
2023/08/02 02:18:15;;;;;;;3.33;1.67;;;;;;;19.39;60.04;91752.38;4788011;29;20032;-82
2023/08/02 02:20:40;;;;;;;4.70;1.80;;;;;;;19.42;58.62;91751.66;4788747;29;20031;-82
2023/08/02 02:23:06;;;;;;;3.70;1.65;;;;;;;19.48;59.83;91755.53;4789235;29;20047;-81
2023/08/02 02:25:32;;;;;;;4.07;1.80;;;;;;;19.44;60.41;91760.03;4787856;30;20448;-83
2023/08/02 02:27:58;;;;;;;4.72;1.92;;;;;;;19.42;60.73;91762.28;4789871;29;20035;-82
2023/08/02 02:30:25;;;;;;;4.95;2.50;;;;;;;19.41;66.56;91763.38;4787965;30;20069;-82
2023/08/02 02:32:52;;;;;;;4.65;2.60;;;;;;;19.40;68.64;91767.94;4784109;29;20055;-82
2023/08/02 02:35:18;;;;;;;5.50;3.00;;;;;;;19.33;72.18;91773.91;4789714;29;20050;-82
2023/08/02 02:37:44;;;;;;;5.80;2.85;;;;;;;19.27;73.24;91771.91;4788844;29;20051;-82
2023/08/02 02:40:10;;;;;;;5.32;2.90;;;;;;;19.16;74.12;91766.44;4789353;29;20031;-82
2023/08/02 02:42:40;;;;;;;7.07;2.80;;;;;;;19.11;76.07;91766.75;4785284;29;20058;-82
2023/08/02 02:45:08;;;;;;;5.82;3.20;;;;;;;19.00;78.80;91763.16;4788347;30;20043;-82
2023/08/02 02:47:34;;;;;;;4.78;3.03;;;;;;;18.92;80.79;91752.44;4789286;29;20150;-82
2023/08/02 02:49:59;;;;;;;6.95;3.10;;;;;;;18.86;83.26;91742.50;4800616;29;20035;-82
2023/08/02 02:52:25;;;;;;;5.47;3.28;;;;;;;18.81;85.26;91740.91;4787477;30;20030;-82
2023/08/02 02:54:50;;;;;;;7.28;3.45;;;;;;;18.78;87.00;91744.28;4788903;29;20470;-82
2023/08/02 02:57:17;;;;;;;5.78;3.20;;;;;;;18.74;87.73;91746.06;4787292;30;20486;-82
2023/08/02 02:59:43;;;;;;;8.10;3.45;;;;;;;18.68;86.84;91742.94;4782529;29;20130;-82
2023/08/02 03:02:08;;;;;;;6.25;3.50;;;;;;;18.61;89.32;91756.06;4788504;29;20034;-82
2023/08/02 03:04:34;;;;;;;8.98;4.00;;;;;;;18.57;91.33;91765.09;4788784;29;20043;-82
2023/08/02 03:07:00;;;;;;;9.15;4.00;;;;;;;18.44;95.17;91773.22;4787855;29;20051;-82
2023/08/02 03:09:26;;;;;;;8.93;4.00;;;;;;;18.35;98.40;91772.69;4788733;30;20092;-83
2023/08/02 03:11:51;;;;;;;7.63;3.50;;;;;;;18.30;98.86;91779.00;4789162;29;20534;-82
2023/08/02 03:14:17;;;;;;;7.35;3.40;;;;;;;18.24;100.00;91774.38;4786749;29;20039;-82
2023/08/02 03:16:45;;;;;;;6.30;3.65;;;;;;;18.22;100.00;91787.19;4789094;29;20059;-80
2023/08/02 03:19:11;;;;;;;6.93;3.88;;;;;;;18.19;100.00;91791.28;4787411;29;20043;-81
2023/08/02 03:21:38;;;;;;;7.32;3.67;;;;;;;18.20;100.00;91792.81;4800465;29;20038;-82
2023/08/02 03:24:04;;;;;;;8.43;3.30;;;;;;;18.16;100.00;91809.75;4786173;29;20035;-82
2023/08/02 03:26:30;;;;;;;8.90;3.60;;;;;;;18.14;100.00;91804.06;4787261;29;20039;-82
2023/08/02 03:28:55;;;;;;;9.63;4.22;;;;;;;18.12;100.00;91803.63;4788203;29;20067;-81
2023/08/02 03:31:22;;;;;;;8.40;3.75;;;;;;;18.12;100.00;91809.69;4772887;30;20040;-82
2023/08/02 03:33:47;;;;;;;6.85;4.03;;;;;;;18.10;100.00;91804.75;4790353;30;20499;-82
2023/08/02 03:36:13;;;;;;;6.82;3.72;;;;;;;18.07;100.00;91794.84;4792459;29;20047;-82
2023/08/02 03:38:38;;;;;;;6.43;3.70;;;;;;;18.05;100.00;91799.72;4792498;29;20082;-82
2023/08/02 03:41:04;;;;;;;7.40;3.70;;;;;;;18.05;100.00;91797.06;4791560;30;20400;-82
2023/08/02 03:43:30;;;;;;;6.03;3.65;;;;;;;18.03;100.00;91799.31;4792472;29;20406;-82
2023/08/02 03:45:55;;;;;;;6.10;3.20;;;;;;;17.95;100.00;91795.00;4789283;29;20036;-81
2023/08/02 03:48:21;;;;;;;8.32;3.50;;;;;;;17.94;100.00;91796.09;4790597;29;20433;-82
2023/08/02 03:50:46;;;;;;;7.28;3.30;;;;;;;17.90;100.00;91795.28;4792272;29;20071;-82
2023/08/02 03:53:12;;;;;;;6.30;3.35;;;;;;;17.90;100.00;91792.63;4792504;30;20127;-82
2023/08/02 03:55:37;;;;;;;8.90;2.90;;;;;;;17.88;100.00;91798.25;4791625;29;20468;-82
2023/08/02 03:58:03;;;;;;;6.40;3.00;;;;;;;17.86;100.00;91800.50;4791796;29;20053;-82
2023/08/02 04:00:29;;;;;;;9.48;3.33;;;;;;;17.87;100.00;91802.00;4791954;29;20141;-82
2023/08/02 04:02:55;;;;;;;7.63;3.05;;;;;;;17.87;100.00;91806.53;4789803;29;20042;-82
2023/08/02 04:05:21;;;;;;;6.63;3.55;;;;;;;17.76;100.00;91808.19;4792059;29;20039;-82
2023/08/02 04:07:46;;;;;;;6.68;3.13;;;;;;;17.78;100.00;91812.00;4790816;29;20096;-82
2023/08/02 04:10:12;;;;;;;7.20;3.67;;;;;;;17.77;100.00;91815.03;4792086;29;20043;-82
2023/08/02 04:12:38;;;;;;;8.30;3.88;;;;;;;17.78;100.00;91803.31;4792289;29;20074;-82
2023/08/02 04:15:04;;;;;;;7.47;3.78;;;;;;;17.76;100.00;91813.47;4791315;30;20070;-82
2023/08/02 04:17:29;;;;;;;6.90;3.40;;;;;;;17.75;100.00;91807.41;4791359;29;20039;-82
2023/08/02 04:19:55;;;;;;;5.88;3.08;;;;;;;17.78;100.00;91812.00;4790394;29;20427;-82
2023/08/02 04:22:21;;;;;;;5.70;2.70;;;;;;;17.80;100.00;91819.63;4790266;29;20043;-83
2023/08/02 04:24:47;;;;;;;5.13;2.45;;;;;;;17.78;100.00;91822.59;4792049;29;20043;-82
2023/08/02 04:27:13;;;;;;;4.72;2.13;;;;;;;17.74;100.00;91815.69;4791444;29;20125;-82
2023/08/02 04:29:38;;;;;;;3.70;1.92;;;;;;;17.73;98.83;91816.81;4787852;29;20124;-82
2023/08/02 04:32:04;;;;;;;6.78;2.25;;;;;;;17.71;98.01;91822.44;4789010;30;20035;-82
2023/08/02 04:34:30;;;;;;;5.47;2.28;;;;;;;17.68;97.75;91831.84;4790438;30;20035;-82
2023/08/02 04:36:56;;;;;;;5.05;2.20;;;;;;;17.68;98.76;91834.50;4791519;29;20042;-81
2023/08/02 04:39:22;;;;;;;5.85;2.30;;;;;;;17.67;99.66;91832.19;4789133;29;20050;-83
2023/08/02 04:41:54;;;;;;;4.55;1.98;;;;;;;17.65;98.47;91845.00;4789355;29;20118;-82
2023/08/02 04:44:20;;;;;;;6.70;2.42;;;;;;;17.65;100.00;91834.41;4791281;29;20122;-82
2023/08/02 04:46:46;;;;;;;6.05;2.42;;;;;;;17.64;100.00;91832.88;4792091;29;20062;-83
2023/08/02 04:49:11;;;;;;;4.95;2.35;;;;;;;17.65;100.00;91839.69;4789170;29;20079;-81
2023/08/02 04:51:38;;;;;;;5.60;2.45;;;;;;;17.65;100.00;91845.78;4789983;30;20053;-82
2023/08/02 04:54:06;;;;;;;6.55;2.38;;;;;;;17.63;100.00;91834.78;4789815;29;20107;-82
2023/08/02 04:56:32;;;;;;;5.07;2.25;;;;;;;17.63;100.00;91831.34;4792023;29;20047;-82
2023/08/02 04:58:58;;;;;;;4.80;2.28;;;;;;;17.63;100.00;91844.56;4790491;30;20199;-82
2023/08/02 05:01:23;;;;;;;5.47;2.22;;;;;;;17.65;100.00;91852.94;4787947;30;20051;-82
2023/08/02 05:03:49;;;;;;;5.05;2.45;;;;;;;17.59;100.00;91847.16;4787315;29;20051;-81
2023/08/02 05:06:14;;;;;;;5.35;2.15;;;;;;;17.57;100.00;91841.44;4791241;29;20035;-82
2023/08/02 05:08:40;;;;;;;5.97;2.53;;;;;;;17.57;100.00;91844.09;4791041;30;20062;-82
2023/08/02 05:11:07;;;;;;;5.20;2.63;;;;;;;17.59;100.00;91846.41;4791320;29;20039;-83
2023/08/02 05:13:33;;;;;;;5.63;2.70;;;;;;;17.59;100.00;91838.47;4790335;29;20134;-82
2023/08/02 05:15:58;;;;;;;4.55;2.38;;;;;;;17.62;100.00;91857.03;4790463;29;20076;-82
2023/08/02 05:18:24;;;;;;;6.00;2.40;;;;;;;17.63;100.00;91858.59;4790927;29;20039;-82
2023/08/02 05:20:50;;;;;;;5.68;2.50;;;;;;;17.62;100.00;91859.69;4788505;30;20122;-82
2023/08/02 05:23:15;;;;;;;4.97;2.50;;;;;;;17.66;100.00;91865.84;4789860;30;20047;-82
2023/08/02 05:25:42;;;;;;;5.13;2.53;;;;;;;17.70;100.00;91873.88;4788963;29;20031;-82
2023/08/02 05:28:08;;;;;;;7.22;3.10;;;;;;;17.77;100.00;91873.25;4789630;29;20050;-82
2023/08/02 05:30:36;;;;;;;6.72;3.10;;;;;;;17.81;100.00;91879.38;4790638;30;20442;-82
2023/08/02 05:33:01;;;;;;;8.48;3.35;;;;;;;17.82;100.00;91891.53;4790678;29;20096;-82
2023/08/02 05:35:29;;;;;;;5.85;3.00;;;;;;;17.90;100.00;91895.88;4788570;29;20031;-82
2023/08/02 05:37:56;;;;;;;5.57;2.92;;;;;;;17.92;100.00;91901.56;4790258;29;20525;-82
2023/08/02 05:40:22;;;;;;;5.75;3.10;;;;;;;17.99;100.00;91907.06;4789167;30;20095;-82
2023/08/02 05:42:48;;;;;;;6.22;3.70;;;;;;;18.04;100.00;91909.41;4790824;29;20506;-83
2023/08/02 05:45:14;;;;;;;9.05;4.40;;;;;;;18.06;100.00;91915.13;4788731;29;20043;-81
2023/08/02 05:47:40;;;;;;;6.65;3.80;;;;;;;18.07;100.00;91907.97;4784577;29;20075;-82
2023/08/02 05:50:06;;;;;;;10.25;3.90;;;;;;;18.09;100.00;91913.69;4790261;30;20059;-82
2023/08/02 05:52:32;;;;;;;9.48;3.88;;;;;;;18.10;100.00;91913.34;4789263;29;20039;-82
2023/08/02 05:54:58;;;;;;;9.82;4.05;;;;;;;18.03;100.00;91917.69;4788212;30;20063;-82
2023/08/02 05:57:24;;;;;;;6.75;3.88;;;;;;;18.01;100.00;91915.41;4781669;30;20487;-82
2023/08/02 05:59:50;;;;;;;8.02;4.38;;;;;;;18.08;100.00;91920.88;4786663;29;20049;-82
2023/08/02 06:02:16;;;;;;;7.35;4.13;;;;;;;18.21;100.00;91918.09;4789924;29;20043;-82
2023/08/02 06:04:44;;;;;;;6.82;3.83;;;;;;;18.27;100.00;91914.81;4781162;30;20117;-82
2023/08/02 06:07:10;;;;;;;9.32;4.40;;;;;;;18.38;100.00;91915.03;4789218;29;20041;-83
2023/08/02 06:09:36;;;;;;;10.90;4.18;;;;;;;18.61;100.00;91919.66;4782364;30;20134;-82
2023/08/02 06:12:02;;;;;;;12.80;4.43;;;;;;;18.96;100.00;91924.09;4788355;30;20604;-82
2023/08/02 06:14:27;;;;;;;7.32;3.95;;;;;;;19.10;100.00;91937.63;4790441;29;20035;-82
2023/08/02 06:16:53;;;;;;;7.63;4.30;;;;;;;19.27;100.00;91939.84;4785602;29;20069;-82
2023/08/02 06:19:19;;;;;;;8.10;4.75;;;;;;;19.44;100.00;91932.53;4788530;30;20066;-81
2023/08/02 06:21:44;;;;;;;9.82;4.85;;;;;;;19.44;100.00;91943.91;4787331;29;20024;-82
2023/08/02 06:24:10;;;;;;;7.50;4.03;;;;;;;20.16;100.00;91934.41;4789695;29;20051;-81
2023/08/02 06:26:36;;;;;;;8.07;4.50;;;;;;;20.25;100.00;91934.91;4789647;29;20047;-82
2023/08/02 06:29:01;;;;;;;7.68;4.28;;;;;;;20.08;100.00;91935.41;4786177;29;20046;-82
2023/08/02 06:31:27;;;;;;;8.63;4.70;;;;;;;19.91;100.00;91942.03;4786838;29;20047;-83
2023/08/02 06:33:53;;;;;;;7.07;4.22;;;;;;;19.86;100.00;91960.91;4785833;29;20055;-82
2023/08/02 06:36:18;;;;;;;6.30;3.97;;;;;;;19.79;100.00;91950.16;4786720;29;20042;-82
2023/08/02 06:38:47;;;;;;;8.95;4.40;;;;;;;19.78;100.00;91951.31;4783307;30;20043;-81
2023/08/02 06:41:13;;;;;;;9.82;4.80;;;;;;;19.95;100.00;91948.16;4787872;29;20716;-81
2023/08/02 06:43:38;;;;;;;10.05;4.57;;;;;;;20.77;100.00;91953.81;4786231;29;20095;-83
2023/08/02 06:46:04;;;;;;;6.32;4.10;;;;;;;21.76;100.00;91955.97;4781920;29;20122;-77
2023/08/02 06:48:30;;;;;;;13.40;5.63;;;;;;;22.34;94.45;91946.53;4787974;30;20379;-82
2023/08/02 06:50:56;;;;;;;11.35;6.10;;;;;;;22.73;98.25;91947.84;4782989;29;20092;-82
2023/08/02 06:53:21;;;;;;;10.55;6.38;;;;;;;22.57;96.79;91948.16;4779183;30;20581;-83
2023/08/02 06:55:47;;;;;;;16.55;6.97;;;;;;;22.48;100.00;91951.16;4782142;29;20120;-82
2023/08/02 06:58:13;;;;;;;13.88;8.30;;;;;;;22.57;100.00;91958.84;4783406;29;20031;-81
2023/08/02 07:00:40;;;;;;;14.88;8.18;;;;;;;22.75;100.00;91953.59;4782279;29;20070;-83
2023/08/02 07:03:06;;;;;;;10.48;7.18;;;;;;;23.01;100.00;91955.22;4784459;30;20343;-82
2023/08/02 07:05:34;;;;;;;15.68;7.75;;;;;;;23.15;100.00;91955.28;4782307;29;20043;-82
2023/08/02 07:08:01;;;;;;;12.50;7.25;;;;;;;23.11;100.00;91951.06;4786541;29;20040;-83
2023/08/02 07:10:28;;;;;;;12.10;6.53;;;;;;;22.69;100.00;91949.72;4788765;29;20162;-82
2023/08/02 07:12:55;;;;;;;12.63;6.28;;;;;;;22.18;100.00;91954.78;4786839;30;20494;-81
2023/08/02 07:15:20;;;;;;;9.57;5.45;;;;;;;21.95;100.00;91952.34;4785986;30;20046;-81
2023/08/02 07:17:47;;;;;;;13.32;5.88;;;;;;;21.89;100.00;91951.13;4781458;29;20035;-80
2023/08/02 07:20:14;;;;;;;13.82;6.15;;;;;;;21.79;100.00;91949.91;4784915;29;20115;-83
2023/08/02 07:22:41;;;;;;;9.07;5.72;;;;;;;21.78;100.00;91951.06;4786077;30;20035;-82
2023/08/02 07:25:08;;;;;;;10.32;6.63;;;;;;;21.49;100.00;91952.69;4786808;29;20402;-83
2023/08/02 07:27:34;;;;;;;10.30;6.60;;;;;;;21.18;100.00;91956.53;4785570;29;20136;-82
2023/08/02 07:29:59;;;;;;;13.00;7.63;;;;;;;21.11;100.00;91943.19;4786397;29;20091;-83
2023/08/02 07:32:25;;;;;;;12.68;7.70;;;;;;;21.23;100.00;91950.88;4789023;29;20040;-84
2023/08/02 07:34:52;;;;;;;14.93;6.93;;;;;;;21.41;100.00;91951.09;4789347;29;20036;-86
2023/08/02 07:37:18;;;;;;;14.02;7.75;;;;;;;21.50;100.00;91946.22;4779452;29;20060;-85
2023/08/02 07:39:44;;;;;;;12.35;6.30;;;;;;;21.15;100.00;91944.75;4785988;29;20479;-84
2023/08/02 07:42:10;;;;;;;12.48;6.45;;;;;;;20.93;100.00;91943.75;4784840;29;20091;-83
2023/08/02 07:44:37;;;;;;;15.63;7.28;;;;;;;20.66;100.00;91944.94;4799631;29;20071;-83
2023/08/02 07:47:04;;;;;;;14.27;7.43;;;;;;;20.54;100.00;91938.69;4782352;29;20043;-84
2023/08/02 07:49:31;;;;;;;13.82;6.90;;;;;;;20.57;100.00;91939.91;4794157;29;20282;-83
2023/08/02 07:51:57;;;;;;;11.13;6.95;;;;;;;20.63;100.00;91935.03;4783492;30;20545;-84
2023/08/02 07:54:23;;;;;;;10.68;7.20;;;;;;;20.57;100.00;91937.25;4787429;30;20082;-84
2023/08/02 07:56:49;;;;;;;13.90;7.45;;;;;;;20.45;100.00;91946.19;4783401;30;20537;-84
2023/08/02 07:59:14;;;;;;;11.45;6.80;;;;;;;20.54;100.00;91949.34;4782017;29;20039;-84
2023/08/02 08:01:41;;;;;;;9.77;6.22;;;;;;;20.84;100.00;91939.84;4789091;29;20775;-83
2023/08/02 08:04:07;;;;;;;10.63;6.55;;;;;;;20.80;100.00;91942.44;4789429;29;20531;-83
2023/08/02 08:06:33;;;;;;;13.68;7.40;;;;;;;20.56;100.00;91949.78;4789737;29;20114;-80
2023/08/02 08:08:58;;;;;;;14.50;6.78;;;;;;;20.69;100.00;91949.53;4768055;30;20035;-82
2023/08/02 08:11:27;;;;;;;17.15;8.32;;;;;;;20.65;100.00;91959.34;4790341;29;20048;-83
2023/08/02 08:13:53;;;;;;;13.27;9.27;;;;;;;20.83;100.00;91951.59;4797765;29;20063;-83
2023/08/02 08:16:18;;;;;;;12.88;8.65;;;;;;;21.23;100.00;91956.22;4787908;29;20084;-78
2023/08/02 08:18:44;;;;;;;13.27;7.30;;;;;;;21.55;100.00;91958.47;4796020;29;20050;-83
2023/08/02 08:21:10;;;;;;;10.57;6.93;;;;;;;21.48;100.00;91967.16;4786619;29;20027;-85
2023/08/02 08:23:36;;;;;;;16.23;8.25;;;;;;;21.31;100.00;91965.06;4789294;29;20043;-83
2023/08/02 08:26:02;;;;;;;17.13;8.88;;;;;;;21.26;100.00;91963.50;4769957;29;20126;-84
2023/08/02 08:28:28;;;;;;;14.30;7.20;;;;;;;21.17;100.00;91971.75;4789095;29;20075;-84
2023/08/02 08:31:03;;;;;;;14.10;8.27;;;;;;;21.42;100.00;91974.69;4787260;29;20051;-84
2023/08/02 08:33:31;;;;;;;15.20;9.57;;;;;;;21.80;100.00;91978.09;4793042;29;20057;-85
2023/08/02 08:35:57;;;;;;;12.68;9.23;;;;;;;22.22;100.00;91973.47;4783644;29;20051;-85
2023/08/02 08:38:22;;;;;;;13.13;8.52;;;;;;;22.66;100.00;91978.69;4783840;29;20073;-86
2023/08/02 08:40:52;;;;;;;13.68;7.45;;;;;;;22.37;100.00;91972.44;4786600;29;20035;-83
2023/08/02 08:43:20;;;;;;;14.60;8.57;;;;;;;22.43;100.00;91970.19;4801091;29;20480;-84
2023/08/02 08:45:46;;;;;;;14.43;9.32;;;;;;;22.24;100.00;91977.28;4788480;29;20035;-84
2023/08/02 08:48:12;;;;;;;20.88;9.32;;;;;;;22.17;100.00;91974.56;4787949;30;20183;-84
2023/08/02 08:50:41;;;;;;;16.50;9.25;;;;;;;22.10;100.00;91971.84;4790984;29;20086;-83
2023/08/02 08:53:10;;;;;;;19.10;10.25;;;;;;;22.00;100.00;91970.63;4793312;29;21221;-83
2023/08/02 08:55:37;;;;;;;17.08;9.40;;;;;;;22.28;100.00;91971.22;4791796;29;20550;-83
2023/08/02 08:58:02;;;;;;;14.43;9.57;;;;;;;22.52;100.00;91967.19;4790288;29;20042;-82
2023/08/02 09:00:31;;;;;;;14.95;9.02;;;;;;;22.88;100.00;91960.13;4792619;29;20051;-84
2023/08/02 09:03:01;;;;;;;12.35;8.38;;;;;;;22.86;100.00;91954.38;4793205;29;20058;-84
2023/08/02 09:05:30;;;;;;;16.25;7.97;;;;;;;23.19;100.00;91956.06;4802406;29;20058;-85
2023/08/02 09:07:59;;;;;;;12.55;7.50;;;;;;;22.88;100.00;91954.78;4801250;29;20072;-83
2023/08/02 09:10:26;;;;;;;13.30;8.38;;;;;;;21.97;100.00;91960.69;4796794;29;20399;-84
2023/08/02 09:12:52;;;;;;;16.60;9.07;;;;;;;22.03;100.00;91964.56;4787508;29;20048;-84
2023/08/02 09:15:17;;;;;;;15.90;8.90;;;;;;;22.57;100.00;91964.16;4783827;29;20100;-83
2023/08/02 09:17:53;;;;;;;24.88;9.27;;;;;;;23.05;100.00;91969.34;4779523;29;20050;-84
2023/08/02 09:20:21;;;;;;;13.40;7.75;;;;;;;23.31;100.00;91973.63;4781935;29;20047;-84
2023/08/02 09:22:47;;;;;;;12.50;8.40;;;;;;;23.18;100.00;91972.44;4781551;29;20047;-84
2023/08/02 09:25:27;;;;;;;13.15;7.85;;;;;;;23.41;100.00;91967.53;4779547;29;20054;-84
2023/08/02 09:27:54;;;;;;;12.80;8.50;;;;;;;23.11;100.00;91967.09;4779789;29;20410;-84
2023/08/02 09:30:32;;;;;;;14.82;8.60;;;;;;;22.81;100.00;91968.09;4784793;29;20478;-84
2023/08/02 09:33:18;;;;;;;18.25;8.93;;;;;;;23.02;100.00;91960.19;4788405;29;20054;-85
2023/08/02 09:35:52;;;;;;;15.68;9.40;;;;;;;23.01;100.00;91966.69;4779250;29;20506;-82
2023/08/02 09:38:19;;;;;;;15.07;8.20;;;;;;;23.22;100.00;91970.56;4777513;29;20047;-83
2023/08/02 09:40:48;;;;;;;13.18;8.27;;;;;;;23.26;100.00;91969.44;4780163;29;20043;-83
2023/08/02 09:43:14;;;;;;;13.50;7.93;;;;;;;23.38;100.00;91964.88;4783324;29;20038;-85
2023/08/02 09:45:40;;;;;;;19.80;8.52;;;;;;;23.43;100.00;91964.50;4791764;29;20114;-85
2023/08/02 09:48:06;;;;;;;15.07;8.52;;;;;;;23.81;100.00;91963.03;4782885;29;20231;-85
2023/08/02 09:50:32;;;;;;;14.85;7.80;;;;;;;23.78;100.00;91958.47;4783214;29;20095;-84
2023/08/02 09:53:13;;;;;;;13.57;8.50;;;;;;;24.04;100.00;91959.22;4782887;29;20080;-86
2023/08/02 09:55:41;;;;;;;14.07;8.13;;;;;;;23.77;100.00;91962.28;4799585;29;20435;-88
2023/08/02 09:58:07;;;;;;;11.95;7.50;;;;;;;23.58;100.00;91967.97;4780627;29;20079;-86
2023/08/02 10:00:33;;;;;;;15.88;7.55;;;;;;;23.87;100.00;91955.44;4788436;29;20019;-83
2023/08/02 10:02:59;;;;;;;12.98;7.72;;;;;;;23.58;100.00;91958.03;4772470;30;20058;-86
2023/08/02 10:05:25;;;;;;;11.77;7.80;;;;;;;23.43;100.00;91954.56;4792355;29;20062;-85
2023/08/02 10:07:55;;;;;;;13.18;7.22;;;;;;;23.35;100.00;91952.25;4788173;29;20039;-86
2023/08/02 10:10:38;;;;;;;14.52;8.07;;;;;;;23.68;100.00;91957.28;4770172;30;20054;-84
2023/08/02 10:13:19;;;;;;;18.02;7.88;;;;;;;23.72;100.00;91954.63;4791152;29;20101;-87
2023/08/02 10:15:49;;;;;;;12.52;7.68;;;;;;;23.70;100.00;91946.22;4788835;29;20047;-86
2023/08/02 10:18:16;;;;;;;12.43;8.25;;;;;;;23.70;100.00;91944.31;4789134;30;20126;-83
2023/08/02 10:20:42;;;;;;;17.80;7.78;;;;;;;23.84;100.00;91948.16;4778300;30;20043;-85
2023/08/02 10:23:08;;;;;;;13.90;8.02;;;;;;;23.79;100.00;91951.97;4792966;29;20046;-85
2023/08/02 10:25:36;;;;;;;10.35;6.18;;;;;;;23.42;100.00;91939.69;4785935;30;20074;-86
2023/08/02 10:28:02;;;;;;;12.32;7.50;;;;;;;23.28;100.00;91943.13;4782924;29;20068;-86
2023/08/02 10:30:29;;;;;;;13.63;7.13;;;;;;;23.18;100.00;91940.41;4786254;30;20068;-85
2023/08/02 10:33:12;;;;;;;14.48;7.22;;;;;;;23.00;100.00;91938.44;4793192;29;20047;-85
2023/08/02 10:36:01;;;;;;;9.98;6.13;;;;;;;23.37;98.09;91932.06;4789528;29;20099;-82
2023/08/02 10:38:39;;;;;;;12.63;6.95;;;;;;;23.26;100.00;91917.94;4782284;30;20039;-83
2023/08/02 10:41:08;;;;;;;20.52;7.57;;;;;;;23.55;99.03;91921.38;4780197;29;20069;-82
2023/08/02 10:44:15;;;;;;;17.08;7.70;;;;;;;23.42;95.61;91926.34;4784459;29;20039;-81
2023/08/02 10:46:41;;;;;;;11.82;6.32;;;;;;;23.84;96.56;91921.44;4778854;29;20058;-83
2023/08/02 10:49:09;;;;;;;13.73;7.35;;;;;;;23.61;94.20;91924.47;4781437;30;20043;-82
2023/08/02 10:51:41;;;;;;;15.75;8.00;;;;;;;23.42;97.74;91923.69;4795540;29;20436;-80
2023/08/02 10:54:23;;;;;;;14.90;8.00;;;;;;;23.22;100.00;91923.25;4808396;29;20051;-84
2023/08/02 10:56:51;;;;;;;17.45;9.18;;;;;;;23.06;100.00;91926.28;4811031;29;20050;-78
2023/08/02 10:59:23;;;;;;;18.15;9.50;;;;;;;22.97;100.00;91923.16;4786364;30;20078;-80
2023/08/02 11:02:07;;;;;;;16.90;8.48;;;;;;;23.02;100.00;91925.50;4788359;30;20072;-81
2023/08/02 11:04:37;;;;;;;14.05;7.65;;;;;;;23.19;100.00;91929.38;4789928;29;20036;-82
2023/08/02 11:07:18;;;;;;;19.45;8.40;;;;;;;23.35;100.00;91921.00;4789710;29;20050;-83
2023/08/02 11:09:45;;;;;;;17.35;8.07;;;;;;;23.32;99.60;91915.66;4789681;30;20035;-82
2023/08/02 11:12:12;;;;;;;17.25;8.00;;;;;;;23.01;99.60;91915.19;4775972;30;20506;-82
2023/08/02 11:14:39;;;;;;;13.00;8.27;;;;;;;22.93;98.99;91911.72;4788691;30;20118;-82
2023/08/02 11:17:05;;;;;;;13.80;8.05;;;;;;;22.82;100.00;91905.59;4789912;29;20491;-81
2023/08/02 11:19:31;;;;;;;19.45;8.45;;;;;;;22.78;98.63;91910.13;4792419;29;20027;-80
2023/08/02 11:21:59;;;;;;;15.13;7.95;;;;;;;22.87;99.41;91905.97;4805659;29;20032;-80
2023/08/02 11:24:26;;;;;;;13.30;7.68;;;;;;;22.71;100.00;91915.44;4806967;29;20076;-80